Terminal Aerodrome Forecast
Issued by NWS

Home | Current Version | Previous Version | Text Only | Print | Product List | Glossary On
Versions: 1 2 3 4 5 6 7 8 9 10 11 12 13 14 15 16 17 18 19 20 21 22 23 24 25 26
285
FTUS43 KDTX 241720
TAFDET
TAF
KDET 241720Z 2418/2518 08012KT P6SM BKN025 OVC080
      TEMPO 2418/2421 SCT025 OVC080
     FM250300 13015KT 2SM -RA OVC008
     FM251100 25018G34KT P6SM SCT018 BKN028
     FM251500 24015G25KT P6SM SCT025=

USA.gov is the U.S. government's official web portal to all federal, state and local government web resources and services.